sensor_id;sensor_type;location;lat;lon;timestamp;P1;durP1;ratioP1;P2;durP2;ratioP2
55350;SDS011;62194;49.480;10.986;2023-05-10T00:00:05;9.23;;;6.10;;
55350;SDS011;62194;49.480;10.986;2023-05-10T00:00:11;8.55;;;6.07;;
55350;SDS011;62194;49.480;10.986;2023-05-10T00:00:17;8.95;;;6.30;;
55350;SDS011;62194;49.480;10.986;2023-05-10T00:00:22;9.07;;;6.50;;
55350;SDS011;62194;49.480;10.986;2023-05-10T00:00:28;8.95;;;6.70;;
55350;SDS011;62194;49.480;10.986;2023-05-10T00:00:33;7.63;;;6.50;;
55350;SDS011;62194;49.480;10.986;2023-05-10T00:00:39;7.40;;;6.57;;
55350;SDS011;62194;49.480;10.986;2023-05-10T00:00:44;7.28;;;6.50;;
55350;SDS011;62194;49.480;10.986;2023-05-10T00:00:50;7.30;;;6.60;;
55350;SDS011;62194;49.480;10.986;2023-05-10T00:00:55;7.03;;;6.32;;
55350;SDS011;62194;49.480;10.986;2023-05-10T00:01:01;7.10;;;6.40;;
55350;SDS011;62194;49.480;10.986;2023-05-10T00:01:07;7.13;;;6.43;;
55350;SDS011;62194;49.480;10.986;2023-05-10T00:01:13;7.20;;;6.50;;
55350;SDS011;62194;49.480;10.986;2023-05-10T00:01:18;7.40;;;6.70;;
55350;SDS011;62194;49.480;10.986;2023-05-10T00:01:23;7.40;;;6.70;;
55350;SDS011;62194;49.480;10.986;2023-05-10T00:01:29;7.43;;;6.73;;
55350;SDS011;62194;49.480;10.986;2023-05-10T00:01:34;7.50;;;6.80;;
55350;SDS011;62194;49.480;10.986;2023-05-10T00:01:40;7.67;;;6.97;;
55350;SDS011;62194;49.480;10.986;2023-05-10T00:01:45;7.63;;;6.93;;
55350;SDS011;62194;49.480;10.986;2023-05-10T00:01:50;7.50;;;6.80;;
55350;SDS011;62194;49.480;10.986;2023-05-10T00:01:55;7.50;;;6.80;;
55350;SDS011;62194;49.480;10.986;2023-05-10T00:02:02;7.47;;;6.77;;
55350;SDS011;62194;49.480;10.986;2023-05-10T00:02:07;7.13;;;6.43;;
55350;SDS011;62194;49.480;10.986;2023-05-10T00:02:12;7.07;;;6.37;;
55350;SDS011;62194;49.480;10.986;2023-05-10T00:02:18;6.93;;;6.27;;
55350;SDS011;62194;49.480;10.986;2023-05-10T00:02:23;7.00;;;6.30;;
55350;SDS011;62194;49.480;10.986;2023-05-10T00:02:29;6.90;;;6.20;;
55350;SDS011;62194;49.480;10.986;2023-05-10T00:02:34;7.10;;;6.27;;
55350;SDS011;62194;49.480;10.986;2023-05-10T00:02:40;7.57;;;6.30;;
55350;SDS011;62194;49.480;10.986;2023-05-10T00:02:45;7.63;;;6.32;;
55350;SDS011;62194;49.480;10.986;2023-05-10T00:02:50;7.13;;;6.23;;
55350;SDS011;62194;49.480;10.986;2023-05-10T00:02:56;7.07;;;6.23;;
55350;SDS011;62194;49.480;10.986;2023-05-10T00:03:01;7.05;;;6.30;;
55350;SDS011;62194;49.480;10.986;2023-05-10T00:03:06;6.97;;;6.27;;
55350;SDS011;62194;49.480;10.986;2023-05-10T00:03:11;7.00;;;6.30;;
55350;SDS011;62194;49.480;10.986;2023-05-10T00:03:17;7.05;;;6.35;;
55350;SDS011;62194;49.480;10.986;2023-05-10T00:03:22;7.33;;;6.63;;
55350;SDS011;62194;49.480;10.986;2023-05-10T00:03:27;7.40;;;6.70;;
55350;SDS011;62194;49.480;10.986;2023-05-10T00:03:33;7.45;;;6.75;;
55350;SDS011;62194;49.480;10.986;2023-05-10T00:03:38;7.60;;;6.87;;
55350;SDS011;62194;49.480;10.986;2023-05-10T00:03:43;7.63;;;6.87;;
55350;SDS011;62194;49.480;10.986;2023-05-10T00:03:49;7.63;;;6.85;;
55350;SDS011;62194;49.480;10.986;2023-05-10T00:03:54;7.40;;;6.63;;
55350;SDS011;62194;49.480;10.986;2023-05-10T00:03:59;7.40;;;6.60;;
55350;SDS011;62194;49.480;10.986;2023-05-10T00:04:04;7.43;;;6.63;;
55350;SDS011;62194;49.480;10.986;2023-05-10T00:04:10;7.53;;;6.72;;
55350;SDS011;62194;49.480;10.986;2023-05-10T00:04:15;7.50;;;6.70;;
55350;SDS011;62194;49.480;10.986;2023-05-10T00:04:20;7.60;;;6.80;;
55350;SDS011;62194;49.480;10.986;2023-05-10T00:04:26;7.60;;;6.80;;
55350;SDS011;62194;49.480;10.986;2023-05-10T00:04:32;7.50;;;6.68;;
55350;SDS011;62194;49.480;10.986;2023-05-10T00:04:37;7.27;;;6.47;;
55350;SDS011;62194;49.480;10.986;2023-05-10T00:04:43;7.15;;;6.40;;
55350;SDS011;62194;49.480;10.986;2023-05-10T00:04:48;7.00;;;6.30;;
55350;SDS011;62194;49.480;10.986;2023-05-10T00:04:53;7.33;;;6.23;;
55350;SDS011;62194;49.480;10.986;2023-05-10T00:04:58;7.03;;;6.10;;
55350;SDS011;62194;49.480;10.986;2023-05-10T00:05:04;7.05;;;6.10;;
55350;SDS011;62194;49.480;10.986;2023-05-10T00:05:09;7.18;;;6.03;;
55350;SDS011;62194;49.480;10.986;2023-05-10T00:05:15;7.00;;;6.00;;
55350;SDS011;62194;49.480;10.986;2023-05-10T00:05:20;7.17;;;6.20;;
55350;SDS011;62194;49.480;10.986;2023-05-10T00:05:25;7.00;;;6.20;;
55350;SDS011;62194;49.480;10.986;2023-05-10T00:05:31;7.07;;;6.37;;
55350;SDS011;62194;49.480;10.986;2023-05-10T00:05:37;7.13;;;6.43;;
55350;SDS011;62194;49.480;10.986;2023-05-10T00:05:42;7.20;;;6.43;;
55350;SDS011;62194;49.480;10.986;2023-05-10T00:05:48;7.25;;;6.38;;
55350;SDS011;62194;49.480;10.986;2023-05-10T00:05:53;7.03;;;6.30;;
55350;SDS011;62194;49.480;10.986;2023-05-10T00:05:58;7.03;;;6.30;;
55350;SDS011;62194;49.480;10.986;2023-05-10T00:06:03;7.20;;;6.43;;
55350;SDS011;62194;49.480;10.986;2023-05-10T00:06:09;7.73;;;6.67;;
55350;SDS011;62194;49.480;10.986;2023-05-10T00:06:14;7.60;;;6.80;;
55350;SDS011;62194;49.480;10.986;2023-05-10T00:06:19;7.60;;;6.80;;
55350;SDS011;62194;49.480;10.986;2023-05-10T00:06:25;7.40;;;6.57;;
55350;SDS011;62194;49.480;10.986;2023-05-10T00:06:30;7.57;;;6.60;;
55350;SDS011;62194;49.480;10.986;2023-05-10T00:06:36;7.33;;;6.57;;
55350;SDS011;62194;49.480;10.986;2023-05-10T00:06:41;7.22;;;6.50;;
55350;SDS011;62194;49.480;10.986;2023-05-10T00:06:47;7.13;;;6.43;;
55350;SDS011;62194;49.480;10.986;2023-05-10T00:06:52;7.40;;;6.67;;
55350;SDS011;62194;49.480;10.986;2023-05-10T00:06:58;7.43;;;6.68;;
55350;SDS011;62194;49.480;10.986;2023-05-10T00:07:03;7.30;;;6.60;;
55350;SDS011;62194;49.480;10.986;2023-05-10T00:07:09;7.37;;;6.67;;
55350;SDS011;62194;49.480;10.986;2023-05-10T00:07:15;7.40;;;6.70;;
55350;SDS011;62194;49.480;10.986;2023-05-10T00:07:22;7.57;;;6.77;;
55350;SDS011;62194;49.480;10.986;2023-05-10T00:07:27;7.77;;;6.90;;
55350;SDS011;62194;49.480;10.986;2023-05-10T00:07:32;7.85;;;7.03;;
55350;SDS011;62194;49.480;10.986;2023-05-10T00:07:38;7.93;;;7.07;;
55350;SDS011;62194;49.480;10.986;2023-05-10T00:07:43;8.43;;;7.23;;
55350;SDS011;62194;49.480;10.986;2023-05-10T00:07:49;8.66;;;7.24;;
55350;SDS011;62194;49.480;10.986;2023-05-10T00:07:55;8.23;;;7.07;;
55350;SDS011;62194;49.480;10.986;2023-05-10T00:08:00;8.30;;;6.90;;
55350;SDS011;62194;49.480;10.986;2023-05-10T00:08:05;8.27;;;6.68;;
55350;SDS011;62194;49.480;10.986;2023-05-10T00:08:10;7.70;;;6.43;;
55350;SDS011;62194;49.480;10.986;2023-05-10T00:08:16;7.03;;;6.20;;
55350;SDS011;62194;49.480;10.986;2023-05-10T00:08:21;6.80;;;6.10;;
55350;SDS011;62194;49.480;10.986;2023-05-10T00:08:26;7.10;;;6.40;;
55350;SDS011;62194;49.480;10.986;2023-05-10T00:08:32;7.20;;;6.50;;
55350;SDS011;62194;49.480;10.986;2023-05-10T00:08:37;7.47;;;6.75;;
55350;SDS011;62194;49.480;10.986;2023-05-10T00:08:43;7.70;;;6.90;;
55350;SDS011;62194;49.480;10.986;2023-05-10T00:08:50;7.60;;;6.80;;
55350;SDS011;62194;49.480;10.986;2023-05-10T00:08:55;7.50;;;6.75;;
55350;SDS011;62194;49.480;10.986;2023-05-10T00:09:00;7.43;;;6.67;;
55350;SDS011;62194;49.480;10.986;2023-05-10T00:09:06;7.23;;;6.53;;
55350;SDS011;62194;49.480;10.986;2023-05-10T00:09:11;7.10;;;6.40;;
55350;SDS011;62194;49.480;10.986;2023-05-10T00:09:16;7.27;;;6.57;;
55350;SDS011;62194;49.480;10.986;2023-05-10T00:09:22;7.27;;;6.57;;
55350;SDS011;62194;49.480;10.986;2023-05-10T00:09:27;7.10;;;6.43;;
55350;SDS011;62194;49.480;10.986;2023-05-10T00:09:32;7.13;;;6.50;;
55350;SDS011;62194;49.480;10.986;2023-05-10T00:09:37;7.17;;;6.57;;
55350;SDS011;62194;49.480;10.986;2023-05-10T00:09:43;7.23;;;6.63;;
55350;SDS011;62194;49.480;10.986;2023-05-10T00:09:48;7.20;;;6.53;;
55350;SDS011;62194;49.480;10.986;2023-05-10T00:09:53;7.33;;;6.63;;
55350;SDS011;62194;49.480;10.986;2023-05-10T00:09:59;7.37;;;6.67;;
55350;SDS011;62194;49.480;10.986;2023-05-10T00:10:04;7.50;;;6.70;;
55350;SDS011;62194;49.480;10.986;2023-05-10T00:10:10;7.60;;;6.80;;
55350;SDS011;62194;49.480;10.986;2023-05-10T00:10:16;7.50;;;6.70;;
55350;SDS011;62194;49.480;10.986;2023-05-10T00:10:21;7.32;;;6.63;;
55350;SDS011;62194;49.480;10.986;2023-05-10T00:10:26;7.20;;;6.50;;
55350;SDS011;62194;49.480;10.986;2023-05-10T00:10:32;7.20;;;6.50;;
55350;SDS011;62194;49.480;10.986;2023-05-10T00:10:37;7.40;;;6.70;;
55350;SDS011;62194;49.480;10.986;2023-05-10T00:10:42;7.53;;;6.77;;
55350;SDS011;62194;49.480;10.986;2023-05-10T00:10:48;7.87;;;7.03;;
55350;SDS011;62194;49.480;10.986;2023-05-10T00:10:54;8.10;;;7.05;;
55350;SDS011;62194;49.480;10.986;2023-05-10T00:10:59;7.95;;;6.90;;
55350;SDS011;62194;49.480;10.986;2023-05-10T00:11:05;7.68;;;6.65;;
55350;SDS011;62194;49.480;10.986;2023-05-10T00:11:10;7.53;;;6.53;;
55350;SDS011;62194;49.480;10.986;2023-05-10T00:11:15;7.10;;;6.40;;
55350;SDS011;62194;49.480;10.986;2023-05-10T00:11:21;7.13;;;6.43;;
55350;SDS011;62194;49.480;10.986;2023-05-10T00:11:26;7.30;;;6.60;;
55350;SDS011;62194;49.480;10.986;2023-05-10T00:11:31;7.37;;;6.67;;
55350;SDS011;62194;49.480;10.986;2023-05-10T00:11:37;7.30;;;6.60;;
55350;SDS011;62194;49.480;10.986;2023-05-10T00:11:42;7.13;;;6.43;;
55350;SDS011;62194;49.480;10.986;2023-05-10T00:11:47;7.17;;;6.47;;
55350;SDS011;62194;49.480;10.986;2023-05-10T00:11:52;6.83;;;6.13;;
55350;SDS011;62194;49.480;10.986;2023-05-10T00:11:58;6.77;;;6.00;;
55350;SDS011;62194;49.480;10.986;2023-05-10T00:12:03;7.13;;;6.00;;
55350;SDS011;62194;49.480;10.986;2023-05-10T00:12:09;7.28;;;6.13;;
55350;SDS011;62194;49.480;10.986;2023-05-10T00:12:15;7.33;;;6.10;;
55350;SDS011;62194;49.480;10.986;2023-05-10T00:12:20;8.10;;;6.22;;
55350;SDS011;62194;49.480;10.986;2023-05-10T00:12:25;7.97;;;6.40;;
55350;SDS011;62194;49.480;10.986;2023-05-10T00:12:30;7.80;;;6.50;;
55350;SDS011;62194;49.480;10.986;2023-05-10T00:12:35;8.03;;;6.57;;
55350;SDS011;62194;49.480;10.986;2023-05-10T00:12:41;8.52;;;6.55;;
55350;SDS011;62194;49.480;10.986;2023-05-10T00:12:46;9.07;;;6.70;;
55350;SDS011;62194;49.480;10.986;2023-05-10T00:12:52;8.57;;;6.75;;
55350;SDS011;62194;49.480;10.986;2023-05-10T00:12:57;8.70;;;6.90;;
55350;SDS011;62194;49.480;10.986;2023-05-10T00:13:03;8.75;;;7.07;;
55350;SDS011;62194;49.480;10.986;2023-05-10T00:13:08;8.33;;;7.07;;
55350;SDS011;62194;49.480;10.986;2023-05-10T00:13:13;8.20;;;6.93;;
55350;SDS011;62194;49.480;10.986;2023-05-10T00:13:19;7.65;;;6.85;;
55350;SDS011;62194;49.480;10.986;2023-05-10T00:13:24;7.80;;;7.00;;
55350;SDS011;62194;49.480;10.986;2023-05-10T00:13:31;7.72;;;6.93;;
55350;SDS011;62194;49.480;10.986;2023-05-10T00:13:37;7.70;;;6.90;;
55350;SDS011;62194;49.480;10.986;2023-05-10T00:13:42;7.83;;;7.03;;
55350;SDS011;62194;49.480;10.986;2023-05-10T00:13:47;7.77;;;7.03;;
55350;SDS011;62194;49.480;10.986;2023-05-10T00:13:52;7.78;;;6.82;;
55350;SDS011;62194;49.480;10.986;2023-05-10T00:13:58;8.23;;;6.60;;
55350;SDS011;62194;49.480;10.986;2023-05-10T00:14:03;8.20;;;6.53;;
55350;SDS011;62194;49.480;10.986;2023-05-10T00:14:08;8.00;;;6.30;;
55350;SDS011;62194;49.480;10.986;2023-05-10T00:14:13;8.45;;;6.32;;
55350;SDS011;62194;49.480;10.986;2023-05-10T00:14:19;8.03;;;6.40;;
55350;SDS011;62194;49.480;10.986;2023-05-10T00:14:24;7.40;;;6.33;;
55350;SDS011;62194;49.480;10.986;2023-05-10T00:14:29;7.13;;;6.43;;
55350;SDS011;62194;49.480;10.986;2023-05-10T00:14:35;7.40;;;6.70;;
55350;SDS011;62194;49.480;10.986;2023-05-10T00:14:40;7.57;;;6.80;;
55350;SDS011;62194;49.480;10.986;2023-05-10T00:14:45;7.65;;;6.88;;
55350;SDS011;62194;49.480;10.986;2023-05-10T00:14:51;7.80;;;7.00;;
55350;SDS011;62194;49.480;10.986;2023-05-10T00:14:56;7.80;;;7.00;;
55350;SDS011;62194;49.480;10.986;2023-05-10T00:15:01;7.70;;;6.90;;
55350;SDS011;62194;49.480;10.986;2023-05-10T00:15:08;7.50;;;6.70;;
55350;SDS011;62194;49.480;10.986;2023-05-10T00:15:14;7.43;;;6.57;;
55350;SDS011;62194;49.480;10.986;2023-05-10T00:15:19;7.30;;;6.40;;
55350;SDS011;62194;49.480;10.986;2023-05-10T00:15:24;7.38;;;6.50;;
55350;SDS011;62194;49.480;10.986;2023-05-10T00:15:30;7.40;;;6.60;;
55350;SDS011;62194;49.480;10.986;2023-05-10T00:15:35;7.87;;;6.57;;
55350;SDS011;62194;49.480;10.986;2023-05-10T00:15:40;8.25;;;6.65;;
55350;SDS011;62194;49.480;10.986;2023-05-10T00:15:46;7.70;;;6.57;;
55350;SDS011;62194;49.480;10.986;2023-05-10T00:15:51;7.70;;;6.60;;
55350;SDS011;62194;49.480;10.986;2023-05-10T00:15:56;8.13;;;6.50;;
55350;SDS011;62194;49.480;10.986;2023-05-10T00:16:02;8.70;;;6.40;;
55350;SDS011;62194;49.480;10.986;2023-05-10T00:16:07;8.07;;;6.40;;
55350;SDS011;62194;49.480;10.986;2023-05-10T00:16:12;8.35;;;6.53;;
55350;SDS011;62194;49.480;10.986;2023-05-10T00:16:18;8.47;;;6.67;;
55350;SDS011;62194;49.480;10.986;2023-05-10T00:16:23;8.32;;;6.72;;
55350;SDS011;62194;49.480;10.986;2023-05-10T00:16:29;8.30;;;6.80;;
55350;SDS011;62194;49.480;10.986;2023-05-10T00:16:34;7.60;;;6.77;;
55350;SDS011;62194;49.480;10.986;2023-05-10T00:16:39;7.63;;;6.63;;
55350;SDS011;62194;49.480;10.986;2023-05-10T00:16:45;7.53;;;6.40;;
55350;SDS011;62194;49.480;10.986;2023-05-10T00:16:50;7.73;;;6.37;;
55350;SDS011;62194;49.480;10.986;2023-05-10T00:16:55;7.55;;;6.30;;
55350;SDS011;62194;49.480;10.986;2023-05-10T00:17:00;7.40;;;6.37;;
55350;SDS011;62194;49.480;10.986;2023-05-10T00:17:06;8.60;;;6.57;;
55350;SDS011;62194;49.480;10.986;2023-05-10T00:17:11;8.60;;;6.55;;
55350;SDS011;62194;49.480;10.986;2023-05-10T00:17:16;8.27;;;6.60;;
55350;SDS011;62194;49.480;10.986;2023-05-10T00:17:22;8.27;;;6.47;;
55350;SDS011;62194;49.480;10.986;2023-05-10T00:17:27;8.33;;;6.33;;
55350;SDS011;62194;49.480;10.986;2023-05-10T00:17:32;8.70;;;6.45;;
55350;SDS011;62194;49.480;10.986;2023-05-10T00:17:37;7.23;;;6.23;;
55350;SDS011;62194;49.480;10.986;2023-05-10T00:17:43;6.87;;;6.13;;
55350;SDS011;62194;49.480;10.986;2023-05-10T00:17:48;7.30;;;6.20;;
55350;SDS011;62194;49.480;10.986;2023-05-10T00:17:53;7.50;;;6.30;;
55350;SDS011;62194;49.480;10.986;2023-05-10T00:17:58;7.10;;;6.23;;
55350;SDS011;62194;49.480;10.986;2023-05-10T00:18:04;7.17;;;6.40;;
55350;SDS011;62194;49.480;10.986;2023-05-10T00:18:09;7.55;;;6.60;;
55350;SDS011;62194;49.480;10.986;2023-05-10T00:18:14;7.73;;;6.67;;
55350;SDS011;62194;49.480;10.986;2023-05-10T00:18:20;7.67;;;6.83;;
55350;SDS011;62194;49.480;10.986;2023-05-10T00:18:25;7.73;;;6.80;;
55350;SDS011;62194;49.480;10.986;2023-05-10T00:18:30;7.78;;;6.75;;
55350;SDS011;62194;49.480;10.986;2023-05-10T00:18:35;7.50;;;6.60;;
55350;SDS011;62194;49.480;10.986;2023-05-10T00:18:41;7.60;;;6.63;;
55350;SDS011;62194;49.480;10.986;2023-05-10T00:18:46;7.68;;;6.70;;
55350;SDS011;62194;49.480;10.986;2023-05-10T00:18:51;7.73;;;6.60;;
55350;SDS011;62194;49.480;10.986;2023-05-10T00:18:56;7.67;;;6.70;;
55350;SDS011;62194;49.480;10.986;2023-05-10T00:19:02;7.77;;;6.67;;
55350;SDS011;62194;49.480;10.986;2023-05-10T00:19:07;7.53;;;6.47;;
55350;SDS011;62194;49.480;10.986;2023-05-10T00:19:12;7.63;;;6.47;;
55350;SDS011;62194;49.480;10.986;2023-05-10T00:19:18;7.43;;;6.30;;
55350;SDS011;62194;49.480;10.986;2023-05-10T00:19:23;7.25;;;6.45;;
55350;SDS011;62194;49.480;10.986;2023-05-10T00:19:28;7.30;;;6.50;;
55350;SDS011;62194;49.480;10.986;2023-05-10T00:19:33;7.60;;;6.53;;
55350;SDS011;62194;49.480;10.986;2023-05-10T00:19:39;7.78;;;6.55;;
55350;SDS011;62194;49.480;10.986;2023-05-10T00:19:44;7.63;;;6.57;;
55350;SDS011;62194;49.480;10.986;2023-05-10T00:19:49;7.50;;;6.57;;
55350;SDS011;62194;49.480;10.986;2023-05-10T00:19:54;7.43;;;6.50;;
55350;SDS011;62194;49.480;10.986;2023-05-10T00:20:00;7.20;;;6.40;;
55350;SDS011;62194;49.480;10.986;2023-05-10T00:20:05;6.97;;;6.27;;
55350;SDS011;62194;49.480;10.986;2023-05-10T00:20:11;6.90;;;6.20;;
55350;SDS011;62194;49.480;10.986;2023-05-10T00:20:16;6.90;;;6.20;;
55350;SDS011;62194;49.480;10.986;2023-05-10T00:20:22;6.75;;;6.10;;
55350;SDS011;62194;49.480;10.986;2023-05-10T00:20:27;6.73;;;6.10;;
55350;SDS011;62194;49.480;10.986;2023-05-10T00:20:32;6.90;;;6.20;;
55350;SDS011;62194;49.480;10.986;2023-05-10T00:20:38;7.18;;;6.30;;
55350;SDS011;62194;49.480;10.986;2023-05-10T00:20:43;7.17;;;6.37;;
55350;SDS011;62194;49.480;10.986;2023-05-10T00:20:50;7.40;;;6.42;;
55350;SDS011;62194;49.480;10.986;2023-05-10T00:20:56;7.53;;;6.30;;
55350;SDS011;62194;49.480;10.986;2023-05-10T00:21:01;8.10;;;6.37;;
55350;SDS011;62194;49.480;10.986;2023-05-10T00:21:06;8.27;;;6.33;;
55350;SDS011;62194;49.480;10.986;2023-05-10T00:21:11;8.47;;;6.57;;
55350;SDS011;62194;49.480;10.986;2023-05-10T00:21:17;8.48;;;6.65;;
55350;SDS011;62194;49.480;10.986;2023-05-10T00:21:22;8.33;;;6.70;;
55350;SDS011;62194;49.480;10.986;2023-05-10T00:21:27;8.47;;;6.93;;
55350;SDS011;62194;49.480;10.986;2023-05-10T00:21:33;7.82;;;6.95;;
55350;SDS011;62194;49.480;10.986;2023-05-10T00:21:38;7.83;;;7.03;;
55350;SDS011;62194;49.480;10.986;2023-05-10T00:21:43;7.63;;;6.83;;
55350;SDS011;62194;49.480;10.986;2023-05-10T00:21:49;7.43;;;6.63;;
55350;SDS011;62194;49.480;10.986;2023-05-10T00:21:54;7.53;;;6.73;;
55350;SDS011;62194;49.480;10.986;2023-05-10T00:21:59;7.50;;;6.60;;
55350;SDS011;62194;49.480;10.986;2023-05-10T00:22:05;7.40;;;6.55;;
55350;SDS011;62194;49.480;10.986;2023-05-10T00:22:10;7.17;;;6.47;;
55350;SDS011;62194;49.480;10.986;2023-05-10T00:22:15;7.28;;;6.45;;
55350;SDS011;62194;49.480;10.986;2023-05-10T00:22:21;7.30;;;6.43;;
55350;SDS011;62194;49.480;10.986;2023-05-10T00:22:26;6.97;;;6.17;;
55350;SDS011;62194;49.480;10.986;2023-05-10T00:22:31;6.70;;;6.00;;
55350;SDS011;62194;49.480;10.986;2023-05-10T00:22:37;6.53;;;5.85;;
55350;SDS011;62194;49.480;10.986;2023-05-10T00:22:42;6.47;;;5.82;;
55350;SDS011;62194;49.480;10.986;2023-05-10T00:22:48;6.40;;;5.70;;
55350;SDS011;62194;49.480;10.986;2023-05-10T00:22:53;6.33;;;5.73;;
55350;SDS011;62194;49.480;10.986;2023-05-10T00:22:58;6.67;;;5.97;;
55350;SDS011;62194;49.480;10.986;2023-05-10T00:23:03;6.90;;;6.20;;
55350;SDS011;62194;49.480;10.986;2023-05-10T00:23:09;7.17;;;6.47;;
55350;SDS011;62194;49.480;10.986;2023-05-10T00:23:14;7.13;;;6.43;;
55350;SDS011;62194;49.480;10.986;2023-05-10T00:23:20;7.00;;;6.32;;
55350;SDS011;62194;49.480;10.986;2023-05-10T00:23:25;7.03;;;6.33;;
55350;SDS011;62194;49.480;10.986;2023-05-10T00:23:30;6.83;;;6.17;;
55350;SDS011;62194;49.480;10.986;2023-05-10T00:23:35;6.65;;;6.05;;
55350;SDS011;62194;49.480;10.986;2023-05-10T00:23:41;6.80;;;6.17;;
55350;SDS011;62194;49.480;10.986;2023-05-10T00:23:46;7.27;;;6.57;;
55350;SDS011;62194;49.480;10.986;2023-05-10T00:23:51;7.37;;;6.57;;
55350;SDS011;62194;49.480;10.986;2023-05-10T00:23:56;9.25;;;6.82;;
55350;SDS011;62194;49.480;10.986;2023-05-10T00:24:02;9.93;;;6.90;;
55350;SDS011;62194;49.480;10.986;2023-05-10T00:24:07;10.13;;;6.87;;
55350;SDS011;62194;49.480;10.986;2023-05-10T00:24:12;9.82;;;6.60;;
55350;SDS011;62194;49.480;10.986;2023-05-10T00:24:18;9.63;;;6.50;;
55350;SDS011;62194;49.480;10.986;2023-05-10T00:24:23;7.97;;;6.33;;
55350;SDS011;62194;49.480;10.986;2023-05-10T00:24:28;6.97;;;6.20;;
55350;SDS011;62194;49.480;10.986;2023-05-10T00:24:34;6.77;;;6.07;;
55350;SDS011;62194;49.480;10.986;2023-05-10T00:24:39;6.47;;;5.87;;
55350;SDS011;62194;49.480;10.986;2023-05-10T00:24:44;6.50;;;5.85;;
55350;SDS011;62194;49.480;10.986;2023-05-10T00:24:50;6.67;;;5.90;;
55350;SDS011;62194;49.480;10.986;2023-05-10T00:24:55;6.70;;;5.93;;
55350;SDS011;62194;49.480;10.986;2023-05-10T00:25:00;6.80;;;5.95;;
55350;SDS011;62194;49.480;10.986;2023-05-10T00:25:06;6.80;;;6.07;;
55350;SDS011;62194;49.480;10.986;2023-05-10T00:25:12;6.93;;;6.10;;
55350;SDS011;62194;49.480;10.986;2023-05-10T00:25:17;6.97;;;6.23;;
55350;SDS011;62194;49.480;10.986;2023-05-10T00:25:22;7.20;;;6.50;;
55350;SDS011;62194;49.480;10.986;2023-05-10T00:25:27;7.33;;;6.60;;
55350;SDS011;62194;49.480;10.986;2023-05-10T00:25:33;7.40;;;6.67;;
55350;SDS011;62194;49.480;10.986;2023-05-10T00:25:38;7.50;;;6.67;;
55350;SDS011;62194;49.480;10.986;2023-05-10T00:25:43;7.72;;;6.65;;
55350;SDS011;62194;49.480;10.986;2023-05-10T00:25:48;7.53;;;6.40;;
55350;SDS011;62194;49.480;10.986;2023-05-10T00:25:54;7.40;;;6.03;;
55350;SDS011;62194;49.480;10.986;2023-05-10T00:25:59;7.38;;;6.05;;
55350;SDS011;62194;49.480;10.986;2023-05-10T00:26:04;7.53;;;6.13;;
55350;SDS011;62194;49.480;10.986;2023-05-10T00:26:10;7.43;;;6.18;;
55350;SDS011;62194;49.480;10.986;2023-05-10T00:26:17;7.23;;;6.13;;
55350;SDS011;62194;49.480;10.986;2023-05-10T00:26:22;7.53;;;6.30;;
55350;SDS011;62194;49.480;10.986;2023-05-10T00:26:27;7.57;;;6.40;;
55350;SDS011;62194;49.480;10.986;2023-05-10T00:26:33;7.63;;;6.40;;
55350;SDS011;62194;49.480;10.986;2023-05-10T00:26:38;7.40;;;6.40;;
55350;SDS011;62194;49.480;10.986;2023-05-10T00:26:43;7.78;;;6.65;;
55350;SDS011;62194;49.480;10.986;2023-05-10T00:26:48;7.80;;;6.80;;
55350;SDS011;62194;49.480;10.986;2023-05-10T00:26:54;8.10;;;6.73;;
55350;SDS011;62194;49.480;10.986;2023-05-10T00:26:59;8.23;;;6.70;;
55350;SDS011;62194;49.480;10.986;2023-05-10T00:27:05;8.23;;;6.77;;
55350;SDS011;62194;49.480;10.986;2023-05-10T00:27:10;8.03;;;6.70;;
55350;SDS011;62194;49.480;10.986;2023-05-10T00:27:16;8.10;;;6.73;;
55350;SDS011;62194;49.480;10.986;2023-05-10T00:27:21;7.97;;;6.78;;
55350;SDS011;62194;49.480;10.986;2023-05-10T00:27:26;8.27;;;6.90;;
55350;SDS011;62194;49.480;10.986;2023-05-10T00:27:31;8.23;;;7.03;;
55350;SDS011;62194;49.480;10.986;2023-05-10T00:27:37;8.23;;;7.07;;
55350;SDS011;62194;49.480;10.986;2023-05-10T00:27:42;8.48;;;7.15;;
55350;SDS011;62194;49.480;10.986;2023-05-10T00:27:47;8.40;;;7.10;;
55350;SDS011;62194;49.480;10.986;2023-05-10T00:27:53;8.38;;;7.10;;
55350;SDS011;62194;49.480;10.986;2023-05-10T00:28:00;7.80;;;7.00;;
55350;SDS011;62194;49.480;10.986;2023-05-10T00:28:06;7.83;;;6.83;;
55350;SDS011;62194;49.480;10.986;2023-05-10T00:28:11;7.70;;;6.90;;
55350;SDS011;62194;49.480;10.986;2023-05-10T00:28:17;7.70;;;6.90;;
55350;SDS011;62194;49.480;10.986;2023-05-10T00:28:22;7.70;;;6.90;;
55350;SDS011;62194;49.480;10.986;2023-05-10T00:28:27;8.27;;;6.90;;
55350;SDS011;62194;49.480;10.986;2023-05-10T00:28:33;8.50;;;7.07;;
55350;SDS011;62194;49.480;10.986;2023-05-10T00:28:38;8.23;;;7.00;;
55350;SDS011;62194;49.480;10.986;2023-05-10T00:28:44;8.25;;;6.90;;
55350;SDS011;62194;49.480;10.986;2023-05-10T00:28:49;8.30;;;6.90;;
55350;SDS011;62194;49.480;10.986;2023-05-10T00:28:54;7.90;;;7.00;;
55350;SDS011;62194;49.480;10.986;2023-05-10T00:29:01;7.70;;;6.90;;
55350;SDS011;62194;49.480;10.986;2023-05-10T00:29:07;7.68;;;6.88;;
55350;SDS011;62194;49.480;10.986;2023-05-10T00:29:12;7.80;;;7.00;;
55350;SDS011;62194;49.480;10.986;2023-05-10T00:29:17;7.77;;;6.97;;
55350;SDS011;62194;49.480;10.986;2023-05-10T00:29:23;7.68;;;6.85;;
55350;SDS011;62194;49.480;10.986;2023-05-10T00:29:29;8.10;;;6.83;;
55350;SDS011;62194;49.480;10.986;2023-05-10T00:29:34;8.15;;;6.95;;
55350;SDS011;62194;49.480;10.986;2023-05-10T00:29:39;8.30;;;7.17;;
55350;SDS011;62194;49.480;10.986;2023-05-10T00:29:45;8.23;;;7.18;;
55350;SDS011;62194;49.480;10.986;2023-05-10T00:29:50;8.47;;;7.37;;
55350;SDS011;62194;49.480;10.986;2023-05-10T00:29:55;8.50;;;7.50;;
55350;SDS011;62194;49.480;10.986;2023-05-10T00:30:00;8.33;;;7.43;;
55350;SDS011;62194;49.480;10.986;2023-05-10T00:30:06;8.13;;;7.18;;
55350;SDS011;62194;49.480;10.986;2023-05-10T00:30:12;8.77;;;7.00;;
55350;SDS011;62194;49.480;10.986;2023-05-10T00:30:17;8.67;;;6.73;;
55350;SDS011;62194;49.480;10.986;2023-05-10T00:30:23;8.33;;;6.50;;
55350;SDS011;62194;49.480;10.986;2023-05-10T00:30:29;8.65;;;6.30;;
55350;SDS011;62194;49.480;10.986;2023-05-10T00:30:34;8.73;;;6.47;;
55350;SDS011;62194;49.480;10.986;2023-05-10T00:30:39;8.10;;;6.50;;
55350;SDS011;62194;49.480;10.986;2023-05-10T00:30:45;8.45;;;6.53;;
55350;SDS011;62194;49.480;10.986;2023-05-10T00:30:50;9.00;;;6.67;;
55350;SDS011;62194;49.480;10.986;2023-05-10T00:30:55;8.77;;;6.73;;
55350;SDS011;62194;49.480;10.986;2023-05-10T00:31:00;8.83;;;6.83;;
55350;SDS011;62194;49.480;10.986;2023-05-10T00:31:06;8.70;;;6.88;;
55350;SDS011;62194;49.480;10.986;2023-05-10T00:31:11;8.30;;;6.73;;
55350;SDS011;62194;49.480;10.986;2023-05-10T00:31:16;7.53;;;6.77;;
55350;SDS011;62194;49.480;10.986;2023-05-10T00:31:21;7.60;;;6.80;;
55350;SDS011;62194;49.480;10.986;2023-05-10T00:31:27;7.68;;;6.88;;
55350;SDS011;62194;49.480;10.986;2023-05-10T00:31:32;7.90;;;7.00;;
55350;SDS011;62194;49.480;10.986;2023-05-10T00:31:37;8.10;;;7.03;;
55350;SDS011;62194;49.480;10.986;2023-05-10T00:31:43;8.25;;;7.05;;
55350;SDS011;62194;49.480;10.986;2023-05-10T00:31:48;7.95;;;7.07;;
55350;SDS011;62194;49.480;10.986;2023-05-10T00:31:54;7.90;;;6.87;;
55350;SDS011;62194;49.480;10.986;2023-05-10T00:31:59;8.07;;;6.73;;
55350;SDS011;62194;49.480;10.986;2023-05-10T00:32:04;7.50;;;6.60;;